Time;durP1;ratioP1;P1;durP2;ratioP2;P2;SDS_P1;SDS_P2;PMS_P1;PMS_P2;Temp;Humidity;BMP_temperature;BMP_pressure;BME280_temperature;BME280_humidity;BME280_pressure;Samples;Min_cycle;Max_cycle;Signal;HPM_P1;HPM_P2
2022/11/20 00:03:55;;;;;;;20.70;15.13;;;;;;;-2.69;100.00;101411.91;10543241;28;20369;-70
2022/11/20 00:08:56;;;;;;;22.08;15.93;;;;;;;-2.81;100.00;101415.34;10542955;28;20437;-71
2022/11/20 00:13:58;;;;;;;16.85;13.13;;;;;;;-2.83;100.00;101406.66;10559160;28;20043;-72
2022/11/20 00:18:58;;;;;;;20.95;14.48;;;;;;;-2.83;100.00;101415.44;10531322;28;20028;-71
2022/11/20 00:23:59;;;;;;;18.52;13.40;;;;;;;-2.96;100.00;101411.03;10542193;28;20450;-72
2022/11/20 00:29:00;;;;;;;17.90;12.60;;;;;;;-3.04;100.00;101396.47;10543291;28;20032;-72
2022/11/20 00:34:00;;;;;;;13.85;11.27;;;;;;;-2.97;100.00;101396.06;10543276;28;20031;-69
2022/11/20 00:39:01;;;;;;;23.63;14.95;;;;;;;-2.88;100.00;101390.19;10541807;28;20507;-71
2022/11/20 00:44:01;;;;;;;19.95;14.90;;;;;;;-2.82;100.00;101395.09;10540399;28;20043;-71
2022/11/20 00:49:01;;;;;;;19.80;13.52;;;;;;;-2.86;100.00;101398.91;10542530;28;20060;-72
2022/11/20 00:54:02;;;;;;;17.83;12.55;;;;;;;-2.95;100.00;101392.38;10542591;28;20047;-72
2022/11/20 00:59:02;;;;;;;19.15;13.27;;;;;;;-3.00;100.00;101401.56;10542746;28;20063;-72
2022/11/20 01:04:03;;;;;;;20.42;13.00;;;;;;;-3.11;100.00;101404.91;10545067;28;20054;-72
2022/11/20 01:09:05;;;;;;;29.45;13.55;;;;;;;-3.28;100.00;101385.63;10540363;28;20040;-72
2022/11/20 01:14:08;;;;;;;20.13;13.52;;;;;;;-3.11;100.00;101370.47;10542002;28;20527;-72
2022/11/20 01:19:13;;;;;;;18.23;12.68;;;;;;;-3.17;100.00;101390.25;10540558;28;20039;-70
2022/11/20 01:24:15;;;;;;;21.90;15.20;;;;;;;-3.38;100.00;101391.59;10539762;28;20049;-72
2022/11/20 01:29:20;;;;;;;20.73;11.95;;;;;;;-3.49;100.00;101389.63;10523681;28;20046;-72
2022/11/20 01:34:21;;;;;;;17.02;13.10;;;;;;;-3.53;100.00;101383.66;10542094;28;20449;-71
2022/11/20 01:39:23;;;;;;;23.25;14.98;;;;;;;-3.52;100.00;101376.56;10539999;28;20036;-71
2022/11/20 01:44:45;;;;;;;19.73;14.20;;;;;;;-3.48;100.00;101377.22;10543343;28;20427;-70
2022/11/20 01:49:58;;;;;;;17.70;12.93;;;;;;;-3.49;100.00;101371.09;10547840;28;20044;-72
2022/11/20 01:55:05;;;;;;;19.67;13.93;;;;;;;-3.49;100.00;101373.72;10548795;28;20059;-72
2022/11/20 02:00:08;;;;;;;19.90;13.63;;;;;;;-3.60;100.00;101373.56;10546757;28;20058;-72
2022/11/20 02:05:14;;;;;;;22.75;13.65;;;;;;;-3.64;100.00;101370.22;10546990;28;20390;-72
2022/11/20 02:10:15;;;;;;;14.98;13.00;;;;;;;-3.53;100.00;101375.72;10546086;28;20108;-72
2022/11/20 02:15:15;;;;;;;19.00;12.73;;;;;;;-3.57;100.00;101382.16;10546305;28;20124;-72
2022/11/20 02:20:16;;;;;;;20.05;13.75;;;;;;;-3.48;100.00;101370.13;10546821;28;20535;-73
2022/11/20 02:25:16;;;;;;;18.92;14.93;;;;;;;-3.42;100.00;101367.09;10545431;28;20038;-70
2022/11/20 02:30:17;;;;;;;18.90;15.07;;;;;;;-3.40;100.00;101361.72;10546286;28;20060;-72
2022/11/20 02:35:20;;;;;;;16.65;13.15;;;;;;;-3.52;100.00;101353.59;10547042;28;20024;-71
2022/11/20 02:40:21;;;;;;;23.10;13.85;;;;;;;-3.49;100.00;101341.13;10546487;28;20118;-72
2022/11/20 02:45:22;;;;;;;14.50;12.20;;;;;;;-3.53;100.00;101345.75;10566554;28;20115;-72
2022/11/20 02:50:23;;;;;;;17.13;13.88;;;;;;;-3.63;100.00;101339.34;10551503;28;20056;-70
2022/11/20 02:55:23;;;;;;;15.93;12.70;;;;;;;-3.65;100.00;101347.38;10544706;28;20429;-71
2022/11/20 03:00:23;;;;;;;20.38;12.93;;;;;;;-3.74;100.00;101334.69;10546908;28;20039;-70
2022/11/20 03:05:24;;;;;;;10.43;9.43;;;;;;;-3.68;100.00;101315.78;10545212;28;20085;-72
2022/11/20 03:10:24;;;;;;;21.77;14.82;;;;;;;-3.44;100.00;101325.81;10549699;28;20101;-73
2022/11/20 03:15:25;;;;;;;20.80;14.32;;;;;;;-3.53;100.00;101321.94;10544823;28;20028;-73
2022/11/20 03:20:25;;;;;;;21.83;12.73;;;;;;;-3.47;100.00;101312.75;10545518;28;20067;-73
2022/11/20 03:25:25;;;;;;;19.98;13.60;;;;;;;-3.51;100.00;101312.06;10544821;28;20032;-72
2022/11/20 03:30:26;;;;;;;17.55;13.20;;;;;;;-3.68;100.00;101313.16;10543775;28;20452;-72
2022/11/20 03:35:26;;;;;;;16.65;12.95;;;;;;;-3.69;100.00;101306.16;10560034;28;20075;-72
2022/11/20 03:40:27;;;;;;;18.75;14.65;;;;;;;-3.71;100.00;101297.47;10560460;28;20036;-72
2022/11/20 03:45:27;;;;;;;22.65;14.48;;;;;;;-3.67;100.00;101303.41;10544001;28;20081;-72
2022/11/20 03:50:27;;;;;;;19.02;13.82;;;;;;;-3.68;100.00;101294.63;10559013;28;20087;-72
2022/11/20 03:55:29;;;;;;;21.40;15.23;;;;;;;-3.76;100.00;101270.44;10543494;28;20051;-73
2022/11/20 04:00:29;;;;;;;27.63;15.82;;;;;;;-3.66;100.00;101263.63;10542612;28;20373;-73
2022/11/20 04:05:30;;;;;;;25.40;16.35;;;;;;;-3.59;100.00;101253.50;10541932;28;20090;-72
2022/11/20 04:10:30;;;;;;;22.40;17.45;;;;;;;-3.67;100.00;101250.47;10544190;28;20074;-73
2022/11/20 04:15:30;;;;;;;14.73;12.82;;;;;;;-3.82;100.00;101237.28;10541875;28;20479;-73
2022/11/20 04:20:31;;;;;;;26.50;15.70;;;;;;;-3.69;100.00;101228.56;10542884;28;20130;-73
2022/11/20 04:25:31;;;;;;;18.75;15.02;;;;;;;-3.69;100.00;101237.34;10542380;28;20039;-70
2022/11/20 04:30:31;;;;;;;18.63;14.10;;;;;;;-3.70;100.00;101242.72;10542622;28;20048;-73
2022/11/20 04:35:35;;;;;;;19.65;14.85;;;;;;;-3.71;100.00;101255.13;10542071;28;20028;-73
2022/11/20 04:40:36;;;;;;;22.02;14.70;;;;;;;-3.66;100.00;101260.97;10542165;28;20028;-73
2022/11/20 04:45:36;;;;;;;19.38;14.65;;;;;;;-3.59;100.00;101246.41;10544342;28;20059;-73
2022/11/20 04:50:40;;;;;;;20.42;14.63;;;;;;;-3.59;100.00;101237.63;10542846;28;20059;-72
2022/11/20 04:55:40;;;;;;;26.40;15.38;;;;;;;-3.55;100.00;101237.31;10540693;28;20036;-73
2022/11/20 05:00:40;;;;;;;26.95;17.63;;;;;;;-3.57;100.00;101238.38;10541005;28;20039;-72
2022/11/20 05:05:41;;;;;;;27.02;15.48;;;;;;;-3.56;100.00;101243.56;10560074;28;20032;-72
2022/11/20 05:10:41;;;;;;;20.50;15.57;;;;;;;-3.61;100.00;101248.28;10544586;28;20380;-72
2022/11/20 05:15:41;;;;;;;22.05;15.07;;;;;;;-3.66;100.00;101238.97;10566925;28;20059;-71
2022/11/20 05:20:42;;;;;;;21.83;14.10;;;;;;;-3.71;100.00;101244.53;10538105;28;20036;-73
2022/11/20 05:25:42;;;;;;;22.98;15.40;;;;;;;-3.75;100.00;101240.38;10522345;28;20103;-72
2022/11/20 05:30:43;;;;;;;23.98;16.80;;;;;;;-3.71;100.00;101248.97;10540209;28;20369;-73
2022/11/20 05:35:43;;;;;;;24.42;16.75;;;;;;;-3.70;100.00;101227.72;10556534;28;20036;-72
2022/11/20 05:40:44;;;;;;;25.10;17.05;;;;;;;-3.71;100.00;101226.00;10539218;28;20040;-72
2022/11/20 05:45:54;;;;;;;23.70;16.52;;;;;;;-3.59;100.00;101219.94;10540724;28;20036;-72
2022/11/20 05:50:57;;;;;;;24.25;16.95;;;;;;;-3.57;100.00;101212.75;10540378;28;20050;-73
2022/11/20 05:56:09;;;;;;;20.70;16.33;;;;;;;-3.49;100.00;101195.50;10543127;28;20035;-73
2022/11/20 06:01:11;;;;;;;20.75;15.52;;;;;;;-3.45;100.00;101197.00;10556106;28;20035;-73
2022/11/20 06:06:11;;;;;;;20.73;16.80;;;;;;;-3.46;100.00;101187.38;10540277;28;20028;-72
2022/11/20 06:11:12;;;;;;;27.25;17.63;;;;;;;-3.48;100.00;101184.81;10539560;28;20028;-72
2022/11/20 06:16:15;;;;;;;18.20;15.43;;;;;;;-3.51;100.00;101182.38;10537619;28;20451;-73
2022/11/20 06:21:17;;;;;;;24.20;17.20;;;;;;;-3.49;100.00;101171.69;10559387;28;20509;-72
2022/11/20 06:26:22;;;;;;;23.88;16.77;;;;;;;-3.46;100.00;101159.09;10539016;28;20028;-73
2022/11/20 06:31:23;;;;;;;21.87;19.30;;;;;;;-3.33;100.00;101161.78;10544899;28;20039;-72
2022/11/20 06:36:24;;;;;;;22.60;17.70;;;;;;;-3.14;100.00;101172.84;10545501;28;20107;-73
2022/11/20 06:41:25;;;;;;;22.90;17.05;;;;;;;-2.99;100.00;101160.38;10546367;28;20503;-73
2022/11/20 06:46:25;;;;;;;24.25;19.08;;;;;;;-2.88;100.00;101164.94;10563069;28;20051;-73
2022/11/20 06:51:25;;;;;;;24.33;17.88;;;;;;;-2.67;100.00;101178.53;10562160;28;20048;-73
2022/11/20 06:56:26;;;;;;;26.80;18.65;;;;;;;-2.47;100.00;101177.16;10545209;28;20032;-72
2022/11/20 07:01:26;;;;;;;27.88;18.45;;;;;;;-2.33;100.00;101163.75;10544711;28;20028;-73
2022/11/20 07:06:27;;;;;;;27.50;17.45;;;;;;;-2.20;100.00;101159.31;10546559;28;20036;-70
2022/11/20 07:11:27;;;;;;;25.80;18.80;;;;;;;-2.11;100.00;101157.78;10545173;28;20174;-73
2022/11/20 07:16:28;;;;;;;25.05;17.92;;;;;;;-2.06;100.00;101154.81;10543986;28;20115;-74
2022/11/20 07:21:28;;;;;;;23.10;16.83;;;;;;;-2.04;100.00;101163.50;10561617;28;20028;-73
2022/11/20 07:26:28;;;;;;;26.77;21.00;;;;;;;-1.99;100.00;101150.78;10545976;28;20444;-74
2022/11/20 07:31:29;;;;;;;21.20;16.60;;;;;;;-1.94;100.00;101161.91;10549340;28;20039;-73
2022/11/20 07:36:29;;;;;;;28.17;19.52;;;;;;;-1.94;100.00;101149.50;10547950;28;20070;-73
2022/11/20 07:41:30;;;;;;;29.27;18.25;;;;;;;-1.73;100.00;101165.66;10543857;28;20043;-73
2022/11/20 07:46:30;;;;;;;24.50;17.67;;;;;;;-1.58;100.00;101163.69;10543292;28;20484;-72
2022/11/20 07:51:31;;;;;;;27.80;20.73;;;;;;;-1.44;100.00;101168.81;10541954;28;20521;-73
2022/11/20 07:56:31;;;;;;;24.08;17.50;;;;;;;-1.32;100.00;101164.41;10542774;28;20438;-73
2022/11/20 08:01:31;;;;;;;25.65;19.15;;;;;;;-1.31;100.00;101150.19;10543161;28;20032;-73
2022/11/20 08:06:32;;;;;;;30.40;19.42;;;;;;;-1.27;100.00;101145.50;10446975;28;27142;-73
2022/11/20 08:16:51;;;;;;;28.27;20.55;;;;;;;-1.06;100.00;101140.34;10542324;28;20464;-74
2022/11/20 08:21:52;;;;;;;23.17;18.25;;;;;;;-0.98;100.00;101146.78;10557910;28;20040;-73
2022/11/20 08:26:52;;;;;;;23.33;17.58;;;;;;;-0.83;100.00;101136.78;10541832;28;20110;-72
2022/11/20 08:31:53;;;;;;;26.77;20.60;;;;;;;-0.67;100.00;101135.59;10523534;28;20130;-72
2022/11/20 08:36:53;;;;;;;36.60;21.52;;;;;;;-0.62;100.00;101131.59;10557808;28;20036;-72
2022/11/20 08:41:53;;;;;;;25.67;20.08;;;;;;;-0.52;100.00;101139.72;10541612;28;20039;-73
2022/11/20 08:46:54;;;;;;;29.83;21.67;;;;;;;-0.42;100.00;101140.69;10541230;28;20032;-73
2022/11/20 08:51:55;;;;;;;27.85;20.45;;;;;;;-0.36;100.00;101129.56;10539755;28;20430;-72
2022/11/20 08:56:55;;;;;;;29.42;19.33;;;;;;;-0.29;100.00;101121.94;10540526;28;20128;-73
2022/11/20 09:01:55;;;;;;;26.52;20.50;;;;;;;-0.24;100.00;101133.91;10557623;28;20035;-71
2022/11/20 09:06:56;;;;;;;30.92;20.67;;;;;;;-0.25;100.00;101128.72;10539908;28;20036;-73
2022/11/20 09:11:56;;;;;;;33.90;22.85;;;;;;;-0.19;100.00;101116.72;10556248;28;20101;-71
2022/11/20 09:16:56;;;;;;;29.13;18.92;;;;;;;-0.15;100.00;101111.06;10541073;28;20047;-71
2022/11/20 09:21:57;;;;;;;28.25;20.70;;;;;;;-0.07;100.00;101105.09;10539170;28;20040;-72
2022/11/20 09:26:57;;;;;;;24.13;19.75;;;;;;;-0.01;100.00;101091.28;10539485;28;20114;-72
2022/11/20 09:31:58;;;;;;;35.67;21.50;;;;;;;-0.03;100.00;101069.28;10538586;28;20486;-71
2022/11/20 09:36:58;;;;;;;28.73;21.52;;;;;;;0.06;100.00;101065.84;10555496;28;20040;-73
2022/11/20 09:41:58;;;;;;;26.70;19.73;;;;;;;0.14;100.00;101058.09;10539301;28;20032;-72
2022/11/20 09:47:02;;;;;;;31.27;22.17;;;;;;;0.25;100.00;101048.38;10478422;28;20044;-71
2022/11/20 09:52:16;;;;;;;31.05;21.17;;;;;;;0.32;100.00;101041.56;10542030;28;20134;-72
2022/11/20 09:57:21;;;;;;;26.50;19.02;;;;;;;0.42;100.00;101018.53;10545161;28;20470;-72
2022/11/20 10:02:39;;;;;;;33.05;24.58;;;;;;;0.55;100.00;101019.19;10538640;28;20039;-72
2022/11/20 10:07:55;;;;;;;32.95;23.65;;;;;;;0.63;100.00;101005.19;10547844;28;20092;-73
2022/11/20 10:13:05;;;;;;;29.77;22.42;;;;;;;0.74;100.00;100985.63;10546342;28;20382;-72
2022/11/20 10:18:11;;;;;;;34.72;24.70;;;;;;;0.90;100.00;100970.00;10545863;28;20468;-71
2022/11/20 10:23:27;;;;;;;38.40;26.00;;;;;;;0.96;100.00;100964.13;10545824;28;20468;-71
2022/11/20 10:28:48;;;;;;;35.83;26.42;;;;;;;1.09;100.00;100963.91;10546963;28;20043;-72
2022/11/20 10:33:53;;;;;;;32.65;23.05;;;;;;;1.21;100.00;100962.81;10547718;28;20176;-71
2022/11/20 10:39:04;;;;;;;36.95;26.80;;;;;;;1.34;100.00;100958.09;10561590;28;20036;-71
2022/11/20 10:49:54;;;;;;;30.05;22.08;;;;;;;1.60;100.00;100928.22;10545225;28;20056;-71
2022/11/20 10:55:13;;;;;;;41.08;28.45;;;;;;;1.67;100.00;100915.16;10561158;28;20035;-71
2022/11/20 11:00:13;;;;;;;38.35;27.10;;;;;;;1.86;100.00;100900.00;10545478;28;20468;-70
2022/11/20 11:05:20;;;;;;;31.42;24.50;;;;;;;1.92;100.00;100887.06;10544489;28;20040;-71
2022/11/20 11:10:42;;;;;;;44.15;28.25;;;;;;;2.16;100.00;100882.09;10545214;28;20035;-71
2022/11/20 11:15:42;;;;;;;30.95;23.00;;;;;;;2.38;100.00;100866.72;10544190;28;20032;-72
2022/11/20 11:20:49;;;;;;;35.72;27.30;;;;;;;2.59;100.00;100864.69;10545682;28;20040;-71
2022/11/20 11:25:56;;;;;;;37.50;24.27;;;;;;;2.68;100.00;100838.88;10544273;28;20044;-71
2022/11/20 11:30:57;;;;;;;40.78;26.35;;;;;;;2.67;100.00;100822.00;10561038;28;20140;-71
2022/11/20 11:36:02;;;;;;;39.65;24.15;;;;;;;2.46;100.00;100787.50;10544375;28;20036;-71
2022/11/20 11:41:07;;;;;;;23.97;17.57;;;;;;;2.45;100.00;100780.47;10559841;28;20024;-71
2022/11/20 11:46:19;;;;;;;34.80;21.85;;;;;;;2.51;100.00;100763.00;10559648;28;20106;-71
2022/11/20 11:51:20;;;;;;;33.78;23.98;;;;;;;2.62;100.00;100767.31;10544226;28;20054;-71
2022/11/20 11:56:20;;;;;;;31.52;24.08;;;;;;;2.60;100.00;100770.13;10541960;28;20038;-71
2022/11/20 12:01:43;;;;;;;41.97;28.23;;;;;;;2.56;100.00;100760.72;10542347;28;20052;-70
2022/11/20 12:06:45;;;;;;;42.80;30.00;;;;;;;2.66;100.00;100755.34;10559736;28;20032;-72
2022/11/20 12:12:12;;;;;;;42.97;27.48;;;;;;;2.84;100.00;100745.50;10543100;28;20058;-70
2022/11/20 12:17:13;;;;;;;54.17;36.97;;;;;;;3.00;100.00;100737.66;10559524;28;20032;-70
2022/11/20 12:22:28;;;;;;;44.30;28.83;;;;;;;3.15;100.00;100724.56;10542160;28;20032;-72
2022/11/20 12:27:41;;;;;;;49.17;31.38;;;;;;;3.18;100.00;100720.75;10542168;28;20055;-70
2022/11/20 12:33:04;;;;;;;40.78;29.38;;;;;;;3.16;100.00;100722.72;10543227;28;20024;-71
2022/11/20 12:38:25;;;;;;;47.30;29.42;;;;;;;3.11;100.00;100709.81;10542417;28;20039;-71
2022/11/20 12:49:34;;;;;;;56.40;35.90;;;;;;;3.16;100.00;100675.44;10546144;28;20032;-69
2022/11/20 12:54:50;;;;;;;50.60;32.15;;;;;;;3.21;100.00;100672.25;10557905;28;20102;-71
2022/11/20 13:00:05;;;;;;;47.50;30.85;;;;;;;3.18;100.00;100659.19;10545418;28;20056;-70
2022/11/20 13:05:09;;;;;;;54.28;34.67;;;;;;;3.14;100.00;100639.09;10541764;28;20111;-68
2022/11/20 13:10:52;;;;;;;50.75;33.65;;;;;;;3.07;100.00;100643.41;10538905;28;20028;-70
2022/11/20 13:16:02;;;;;;;57.35;35.33;;;;;;;3.07;100.00;100638.06;10503686;28;20068;-69
2022/11/20 13:21:13;;;;;;;51.78;33.15;;;;;;;3.08;100.00;100634.38;10523831;28;20040;-70
2022/11/20 13:26:22;;;;;;;53.63;33.70;;;;;;;3.06;100.00;100620.31;10541828;28;20058;-68
2022/11/20 13:31:34;;;;;;;60.08;35.67;;;;;;;3.01;100.00;100615.44;10540651;28;20443;-68
2022/11/20 13:36:36;;;;;;;48.97;33.35;;;;;;;2.98;100.00;100597.84;10555868;28;20024;-69
2022/11/20 13:41:39;;;;;;;59.83;31.98;;;;;;;2.94;100.00;100584.97;10537703;28;20084;-69
2022/11/20 13:46:43;;;;;;;48.60;33.08;;;;;;;2.91;100.00;100585.28;10540207;28;20245;-70
2022/11/20 13:51:51;;;;;;;51.88;36.58;;;;;;;2.84;100.00;100570.81;10538912;28;20059;-70
2022/11/20 13:57:33;;;;;;;46.25;28.70;;;;;;;2.79;100.00;100561.44;10539797;28;20043;-72
2022/11/20 14:02:34;;;;;;;49.38;31.25;;;;;;;2.67;100.00;100535.94;10531918;28;20377;-72
2022/11/20 14:07:37;;;;;;;51.67;34.17;;;;;;;2.70;100.00;100514.25;10522944;28;20089;-73
2022/11/20 14:12:37;;;;;;;53.50;34.08;;;;;;;2.79;100.00;100510.63;10537476;28;20070;-71
2022/11/20 14:17:38;;;;;;;47.47;29.83;;;;;;;2.75;100.00;100495.91;10538974;28;20075;-72
2022/11/20 14:22:38;;;;;;;63.08;36.53;;;;;;;2.67;100.00;100481.63;10537836;28;20028;-71
2022/11/20 14:27:40;;;;;;;26.45;20.90;;;;;;;2.68;100.00;100475.28;10538762;28;20035;-71
2022/11/20 14:32:41;;;;;;;63.15;39.70;;;;;;;2.67;100.00;100470.94;10538636;28;20036;-72
2022/11/20 14:37:41;;;;;;;28.48;18.85;;;;;;;2.68;100.00;100456.56;10541893;28;20421;-74
2022/11/20 14:42:43;;;;;;;40.58;27.75;;;;;;;2.67;100.00;100444.22;10537177;28;20044;-72
2022/11/20 14:47:43;;;;;;;69.75;39.38;;;;;;;2.73;100.00;100439.06;10554409;28;20388;-71
2022/11/20 14:52:57;;;;;;;56.38;38.55;;;;;;;2.78;100.00;100435.94;10559904;28;20079;-72
2022/11/20 14:58:02;;;;;;;60.75;36.28;;;;;;;2.80;100.00;100409.88;10544627;28;20043;-71
2022/11/20 15:03:03;;;;;;;66.05;38.63;;;;;;;2.80;100.00;100409.88;10547081;28;20039;-73
2022/11/20 15:08:06;;;;;;;70.90;38.30;;;;;;;2.88;100.00;100393.03;10545577;28;20383;-72
2022/11/20 15:13:12;;;;;;;56.80;38.40;;;;;;;2.91;100.00;100384.69;10545994;28;20030;-72
2022/11/20 15:18:13;;;;;;;63.17;41.00;;;;;;;2.98;100.00;100372.34;10544302;28;20089;-72
2022/11/20 15:23:15;;;;;;;60.72;37.95;;;;;;;3.00;100.00;100371.19;10542975;28;20089;-73
2022/11/20 15:28:27;;;;;;;48.42;30.52;;;;;;;3.02;100.00;100357.66;10543296;28;20486;-72
2022/11/20 15:33:28;;;;;;;54.03;33.20;;;;;;;3.03;100.00;100367.34;10559051;28;20395;-72
2022/11/20 15:38:28;;;;;;;1.30;1.27;;;;;;;3.03;100.00;100365.53;10543566;28;20047;-73
2022/11/20 15:43:29;;;;;;;2.03;1.98;;;;;;;3.05;100.00;100360.00;10545073;28;20032;-72
2022/11/20 15:48:31;;;;;;;1.98;1.92;;;;;;;2.97;100.00;100357.31;10543712;28;20040;-71
2022/11/20 15:53:31;;;;;;;1.95;1.88;;;;;;;2.88;100.00;100366.28;10558648;28;20472;-72
2022/11/20 15:58:32;;;;;;;4.50;4.30;;;;;;;2.80;100.00;100369.75;10543472;28;20040;-72
2022/11/20 16:03:32;;;;;;;0.80;0.80;;;;;;;2.78;100.00;100367.25;10540481;28;20475;-72
2022/11/20 16:08:32;;;;;;;1.65;1.65;;;;;;;2.89;100.00;100373.31;10542345;28;20044;-73
2022/11/20 16:18:52;;;;;;;1.88;1.77;;;;;;;2.93;100.00;100383.50;10542001;28;20395;-72
2022/11/20 16:23:52;;;;;;;4.13;3.90;;;;;;;2.89;100.00;100368.78;10541864;28;20036;-71
2022/11/20 16:28:53;;;;;;;1.58;1.58;;;;;;;2.88;100.00;100379.66;10543332;28;20460;-72
2022/11/20 16:33:57;;;;;;;0.90;0.90;;;;;;;2.92;100.00;100376.50;10540468;28;20111;-72
2022/11/20 16:38:59;;;;;;;2.20;2.15;;;;;;;2.96;100.00;100377.00;10542179;28;20098;-72
2022/11/20 16:44:01;;;;;;;0.70;0.70;;;;;;;2.94;100.00;100379.84;10542813;28;20036;-71
2022/11/20 16:49:06;;;;;;;1.08;1.08;;;;;;;2.97;100.00;100381.38;10557940;28;20375;-72
2022/11/20 16:54:07;;;;;;;4.85;4.55;;;;;;;2.92;100.00;100384.53;10558097;28;20040;-71
2022/11/20 16:59:08;;;;;;;1.38;1.38;;;;;;;3.04;100.00;100382.41;10558239;28;20109;-71
2022/11/20 17:04:08;;;;;;;2.90;2.80;;;;;;;2.99;100.00;100398.91;10541134;28;20081;-72
2022/11/20 17:09:08;;;;;;;1.05;1.05;;;;;;;3.09;100.00;100412.16;10540434;28;20081;-73
2022/11/20 17:14:10;;;;;;;0.93;0.93;;;;;;;3.22;100.00;100417.06;10539456;28;20352;-73
2022/11/20 17:19:10;;;;;;;1.33;1.33;;;;;;;3.25;100.00;100417.59;10557381;28;20043;-73
2022/11/20 17:24:11;;;;;;;1.23;1.23;;;;;;;3.17;100.00;100408.69;10541027;28;20036;-73
2022/11/20 17:29:13;;;;;;;3.35;3.13;;;;;;;3.24;100.00;100407.88;10539226;28;20454;-72
2022/11/20 17:34:14;;;;;;;0.70;0.70;;;;;;;3.29;100.00;100419.94;10556563;28;20078;-72
2022/11/20 17:39:15;;;;;;;0.90;0.90;;;;;;;3.31;100.00;100407.22;10540674;28;20521;-72
2022/11/20 17:44:15;;;;;;;2.63;2.45;;;;;;;3.33;100.00;100407.91;10539877;28;20468;-72
2022/11/20 17:49:16;;;;;;;0.98;0.98;;;;;;;3.20;100.00;100416.41;10541010;28;20028;-72
2022/11/20 17:54:16;;;;;;;0.52;0.52;;;;;;;3.19;100.00;100428.09;10540467;28;20182;-72
2022/11/20 17:59:17;;;;;;;0.90;0.90;;;;;;;3.29;100.00;100422.59;10546583;28;20468;-73
2022/11/20 18:04:18;;;;;;;1.67;1.67;;;;;;;3.28;100.00;100418.25;10591777;28;20047;-72
2022/11/20 18:09:18;;;;;;;1.52;1.52;;;;;;;3.34;100.00;100426.47;10574152;28;20046;-73
2022/11/20 18:14:31;;;;;;;1.30;1.30;;;;;;;3.39;100.00;100436.72;10567681;28;20036;-73
2022/11/20 18:19:33;;;;;;;2.05;1.95;;;;;;;3.24;100.00;100431.13;10584353;28;20101;-71
2022/11/20 18:24:35;;;;;;;0.73;0.73;;;;;;;3.16;100.00;100428.41;10570920;28;20040;-71
2022/11/20 18:29:35;;;;;;;1.50;1.50;;;;;;;2.99;100.00;100419.47;10539448;28;20060;-71
2022/11/20 18:34:36;;;;;;;1.45;1.45;;;;;;;2.95;100.00;100408.28;10545579;28;20081;-72
2022/11/20 18:39:36;;;;;;;2.38;1.55;;;;;;;2.94;100.00;100397.75;10547113;28;20044;-71
2022/11/20 18:44:55;;;;;;;1.17;1.17;;;;;;;2.93;100.00;100402.22;10547026;28;20186;-71
2022/11/20 18:49:59;;;;;;;2.83;2.72;;;;;;;3.05;100.00;100401.97;10547838;28;20047;-71
2022/11/20 18:55:01;;;;;;;3.53;3.35;;;;;;;3.14;100.00;100403.69;10546923;28;20048;-71
2022/11/20 19:00:01;;;;;;;3.58;3.38;;;;;;;3.15;100.00;100406.16;10527535;28;20050;-71
2022/11/20 19:05:02;;;;;;;0.80;0.80;;;;;;;3.06;100.00;100406.31;10543693;28;20089;-71
2022/11/20 19:10:03;;;;;;;0.60;0.60;;;;;;;3.12;100.00;100403.81;10544322;28;20038;-71
2022/11/20 19:15:03;;;;;;;1.33;1.33;;;;;;;3.17;100.00;100409.53;10546942;28;20444;-71
2022/11/20 19:20:04;;;;;;;2.15;1.83;;;;;;;3.23;100.00;100424.94;10563782;28;20054;-71
2022/11/20 19:25:05;;;;;;;0.98;0.98;;;;;;;3.22;100.00;100412.56;10544773;28;20050;-70
2022/11/20 19:30:06;;;;;;;0.90;0.90;;;;;;;3.24;100.00;100409.72;10544348;28;20414;-71
2022/11/20 19:35:06;;;;;;;0.73;0.73;;;;;;;3.21;100.00;100424.25;10559694;28;20435;-70
2022/11/20 19:40:07;;;;;;;1.08;1.08;;;;;;;3.29;100.00;100434.16;10559020;28;20422;-71
2022/11/20 19:45:08;;;;;;;2.15;2.05;;;;;;;3.40;100.00;100431.19;10542147;28;20072;-72
2022/11/20 19:50:08;;;;;;;1.88;1.85;;;;;;;3.56;100.00;100416.19;10546471;28;20077;-71
2022/11/20 19:55:09;;;;;;;2.08;1.98;;;;;;;3.66;100.00;100423.03;10544508;28;20043;-72
2022/11/20 20:00:11;;;;;;;2.63;2.53;;;;;;;3.76;100.00;100427.41;10544813;28;20035;-72
2022/11/20 20:05:11;;;;;;;1.13;1.13;;;;;;;3.78;100.00;100426.25;10541852;28;20487;-72
2022/11/20 20:10:12;;;;;;;1.10;1.10;;;;;;;3.80;100.00;100426.94;10559625;28;20039;-72
2022/11/20 20:15:12;;;;;;;3.33;3.20;;;;;;;3.73;100.00;100418.72;10542650;28;20071;-72
2022/11/20 20:20:13;;;;;;;0.80;0.80;;;;;;;3.65;100.00;100424.06;10540728;28;20032;-71
2022/11/20 20:25:13;;;;;;;3.75;3.45;;;;;;;3.49;100.00;100418.66;10542581;28;20032;-71
2022/11/20 20:30:14;;;;;;;2.55;2.45;;;;;;;3.48;100.00;100417.84;10541347;28;20032;-71
2022/11/20 20:35:14;;;;;;;3.58;2.47;;;;;;;3.54;100.00;100432.38;10542110;28;20032;-70
2022/11/20 20:40:14;;;;;;;1.30;1.30;;;;;;;3.23;100.00;100430.28;10541118;28;20032;-70
2022/11/20 20:45:15;;;;;;;3.03;2.92;;;;;;;3.16;100.00;100428.41;10557410;28;20082;-70
2022/11/20 20:50:15;;;;;;;0.98;0.98;;;;;;;3.29;100.00;100436.84;10541233;28;20539;-71
2022/11/20 20:55:16;;;;;;;1.75;1.75;;;;;;;3.40;100.00;100447.25;10541133;28;20076;-71
2022/11/20 21:00:16;;;;;;;0.98;0.98;;;;;;;3.39;100.00;100455.44;10541514;28;20032;-71
2022/11/20 21:05:17;;;;;;;3.10;3.00;;;;;;;3.64;100.00;100453.69;10540986;28;20028;-72
2022/11/20 21:10:17;;;;;;;3.70;3.53;;;;;;;4.01;100.00;100437.16;10541298;28;20039;-72
2022/11/20 21:15:17;;;;;;;0.60;0.60;;;;;;;5.10;100.00;100433.97;10539178;28;20028;-71
2022/11/20 21:25:38;;;;;;;0.68;0.68;;;;;;;6.35;100.00;100427.72;10544662;28;20028;-71
2022/11/20 21:30:38;;;;;;;0.50;0.50;;;;;;;6.66;100.00;100449.13;10546800;28;20093;-72
2022/11/20 21:35:40;;;;;;;0.50;0.50;;;;;;;6.79;100.00;100470.00;10546398;28;20058;-73
2022/11/20 21:40:40;;;;;;;0.70;0.70;;;;;;;6.30;100.00;100452.47;10548149;28;20086;-72
2022/11/20 21:45:40;;;;;;;0.45;0.45;;;;;;;6.09;100.00;100452.28;10540545;28;20036;-72
2022/11/20 21:50:41;;;;;;;0.50;0.50;;;;;;;6.18;100.00;100440.47;10539987;28;20379;-70
2022/11/20 21:55:41;;;;;;;0.50;0.50;;;;;;;6.22;100.00;100452.50;10539389;28;20028;-69
2022/11/20 22:00:41;;;;;;;0.52;0.52;;;;;;;6.33;100.00;100454.78;10561412;28;20376;-68
2022/11/20 22:05:42;;;;;;;0.60;0.60;;;;;;;6.48;100.00;100455.69;10548542;28;20032;-69
2022/11/20 22:10:42;;;;;;;0.40;0.40;;;;;;;6.57;100.00;100450.22;10484692;28;20166;-69
2022/11/20 22:15:44;;;;;;;0.90;0.88;;;;;;;6.83;100.00;100457.84;10548296;28;20028;-69
2022/11/20 22:20:44;;;;;;;0.50;0.50;;;;;;;6.99;100.00;100473.84;10547373;28;20067;-71
2022/11/20 22:25:44;;;;;;;1.35;1.35;;;;;;;7.05;100.00;100474.94;10547206;28;20060;-69
2022/11/20 22:30:45;;;;;;;0.47;0.47;;;;;;;7.13;100.00;100473.00;10546988;28;20032;-69
2022/11/20 22:35:45;;;;;;;0.40;0.40;;;;;;;7.17;100.00;100493.16;10546392;28;20487;-69
2022/11/20 22:40:47;;;;;;;0.45;0.45;;;;;;;6.81;100.00;100501.09;10546754;28;20036;-70
2022/11/20 22:45:47;;;;;;;0.50;0.50;;;;;;;6.43;100.00;100501.09;10547023;28;20036;-69
2022/11/20 22:50:48;;;;;;;1.30;1.30;;;;;;;6.12;100.00;100503.84;10547386;28;20429;-69
2022/11/20 22:55:48;;;;;;;0.85;0.85;;;;;;;5.93;100.00;100525.78;10547231;28;20082;-69
2022/11/20 23:00:49;;;;;;;0.95;0.95;;;;;;;5.81;100.00;100561.09;10548621;28;20046;-70
2022/11/20 23:05:49;;;;;;;1.85;1.85;;;;;;;5.59;100.00;100551.13;10548077;28;20032;-69
2022/11/20 23:10:49;;;;;;;0.77;0.77;;;;;;;5.31;100.00;100546.16;10545721;28;20352;-68
2022/11/20 23:15:50;;;;;;;0.60;0.60;;;;;;;4.99;100.00;100570.38;10545294;28;20035;-69